x

Nanakwa Shoal (46181) Wave Buoy

12:00pm - Wed 23rd Jul 2014 All times are PDT. -7 hours from GMT.

  • Sig Wave height 0.3ft
  • Peak Period 2s
  • Wind
    2mph, 4mph gusts
  • Sea Temp 63°f
  • Air Temp 63°f
  • Sea Pressure 1016mb
  • Nanakwa Shoal
  • Nanakwa Shoal

More Historic Weather Station data

Upgrade to MSW Pro to gain access to the past 30 days of data for over 8000 Wavebouys and Weather Stations around the globe.

Join Pro

Comparision Forecast

View Surf forecast
   
Wed 07/23 12:00pm 0.3ft 2s 2 4 mph 1016mb 63f 63f
11:00am 0.3ft 2s 9 11 mph 1016.5mb 63f 61f
10:00am 0.7ft 2s 13 16 mph 1017.3mb 62f 59f
9:00am 0.7ft 2s 16 18 mph 1017.8mb 62f 58f
8:00am 1ft 2s 13 16 mph 1018.4mb 62f 57f
7:00am 0.7ft 2s 16 18 mph 1018.5mb 62f 56f
6:00am 0.3ft 2s 11 13 mph 1018.6mb 62f 56f
5:00am 0.3ft 2s 9 13 mph 1019.1mb 62f 57f
4:00am 0.3ft 2s 13 16 mph 1019.3mb 62f 57f
3:00am  -  2s 7 11 mph 1019.3mb 62f 57f
2:00am  -  2s 4
mph
1019.5mb 62f 58f
1:00am 0.3ft 2s  -  2 mph 1019.6mb 62f 58f
12:00am 0.3ft 2s 9
mph
1019.6mb 63f 59f
Tue 07/22 11:00pm 0.3ft 2s 4 7 mph 1019.3mb 63f 60f
10:00pm 0.3ft 2s 9 11 mph 1019.3mb 63f 60f
9:00pm 0.3ft 2s 9 13 mph 1019mb 63f 62f
8:00pm 0.7ft 2s 11 13 mph 1018.8mb 63f 62f
7:00pm 0.7ft 2s 13 18 mph 1018.7mb 63f 62f
6:00pm 0.3ft 2s 13 18 mph 1018.6mb 64f 63f
5:00pm  -  2s 11 16 mph 1018.2mb 66f 64f
4:00pm  -  3s  -  2 mph 1018.2mb 65f 64f
3:00pm 0.3ft 5s  -  2 mph 1017.9mb 65f 64f
2:00pm 0.3ft 4s  -  2 mph 1017.8mb 65f 64f
1:00pm  -  3s 2
mph
1017.7mb 65f 60f
12:00pm  -  2s  -  2 mph 1017.7mb 64f 60f
11:00am  -  2s 2
mph
1017.2mb 63f 59f
10:00am  -  2s 4 7 mph 1016.9mb 62f 57f
9:00am  -  2s 7 9 mph 1017.1mb 62f 56f
8:00am  -  2s 4 7 mph 1016.8mb 61f 55f
7:00am  -  2s 4
mph
1016.6mb 60f 55f
6:00am  -  2s 2 4 mph 1016.4mb 60f 55f
5:00am  -  2s 4 7 mph 1016.4mb 61f 55f
4:00am  -  2s 2 4 mph 1016.6mb 61f 55f
3:00am  -  2s 4
mph
1016.4mb 61f 55f
2:00am  -  2s 4
mph
1016.1mb 62f 55f
1:00am  -  2s 4
mph
1015.9mb 62f 56f
12:00am  -  2s 2
mph
1015.5mb 62f 56f
Mon 07/21 11:00pm  -  2s 2 4 mph 1015.4mb 62f 56f
10:00pm  -  2s 4 7 mph 1015.3mb 62f 57f
9:00pm  -  2s 4 7 mph 1015.1mb 63f 57f
8:00pm 0.3ft 2s 4 7 mph 1014.9mb 63f 58f
7:00pm 0.3ft 2s 7 9 mph 1014.7mb 63f 58f
6:00pm 0.3ft 2s 7 9 mph 1014.5mb 63f 58f
5:00pm 0.3ft 2s 7 9 mph 1014.3mb 63f 58f
4:00pm 0.3ft 2s 7 9 mph 1014.3mb 63f 58f
3:00pm 0.3ft 2s 2 7 mph 1014.3mb 62f 58f
2:00pm 0.3ft 2s 11 13 mph 1014.1mb 62f 56f
1:00pm 0.3ft 2s 9 11 mph 1013.6mb 62f 56f
12:00pm 0.3ft 2s 11 13 mph 1013.2mb 62f 56f
11:00am 0.3ft 2s 9
mph
1012.7mb 62f 56f
10:00am 0.3ft 2s 9 13 mph 1012.3mb 62f 55f
9:00am 0.3ft 2s 11 13 mph 1012mb 62f 55f
8:00am 0.3ft 2s 11 13 mph 1011.8mb 62f 55f
7:00am  -  2s 4
mph
1011.8mb 62f 56f
6:00am 0.3ft 2s 4 7 mph 1012mb 62f 56f
5:00am 0.3ft 2s 7 9 mph 1012.2mb 62f 58f
4:00am 0.3ft 2s 4 11 mph 1012.2mb 62f 58f
3:00am 0.3ft 2s 11 16 mph 1012.2mb 61f 58f
2:00am 0.3ft 2s 13 16 mph 1012.3mb 61f 59f
1:00am 0.7ft 2s 13 18 mph 1012.6mb 61f 59f
12:00am 0.3ft 2s 13 18 mph 1012.5mb 61f 59f
Sun 07/20 11:00pm 0.7ft 2s 13 16 mph 1012.6mb 61f 59f
10:00pm 0.7ft 3s 11 16 mph 1012.7mb 62f 59f
9:00pm 1ft 3s 18 22 mph 1012.5mb 62f 59f
8:00pm 1.3ft 3s 18 22 mph 1012.6mb 62f 60f
7:00pm 1ft 2s 18 22 mph 1012.7mb 62f 60f
6:00pm 0.7ft 2s 16 20 mph 1013mb 63f 61f
5:00pm 1ft 2s 18 22 mph 1013.3mb 63f 61f
4:00pm 0.7ft 2s 20 25 mph 1013.3mb 64f 62f
3:00pm 0.7ft 2s 16 18 mph 1013.3mb 64f 62f
2:00pm 0.7ft 2s 13 16 mph 1013.8mb 64f 61f
1:00pm 0.7ft 2s 11 13 mph 1014mb 63f 61f
12:00pm 0.7ft 2s 13
mph
1014.1mb 63f 60f
11:00am 0.7ft 2s 11 13 mph 1013.9mb 63f 60f
10:00am 0.7ft 2s 11 13 mph 1013.8mb 63f 60f
9:00am 0.3ft 2s 11 13 mph 1013.7mb 63f 59f
8:00am 0.3ft 2s 11 16 mph 1013.5mb 62f 58f
7:00am 0.3ft 2s 13 18 mph 1013.3mb 62f 58f
6:00am 0.3ft 2s 11 13 mph 1013.4mb 62f 58f
5:00am 0.7ft 2s 11 16 mph 1013.4mb 62f 58f
4:00am 0.7ft 2s 13 16 mph 1013.4mb 62f 58f
3:00am 0.7ft 2s 13 18 mph 1013.3mb 62f 58f
2:00am 0.7ft 3s 11 16 mph 1013.3mb 62f 59f
1:00am 1ft 2s 13 18 mph 1013mb 62f 59f
12:00am 1ft 2s 16 18 mph 1013mb 62f 59f
Sat 07/19 11:00pm 1ft 2s 16 20 mph 1012.7mb 62f 60f
10:00pm 1ft 2s 13 18 mph 1012.5mb 62f 60f
9:00pm 1ft 3s 13 18 mph 1012.2mb 62f 60f